sensor_id;sensor_type;location;lat;lon;timestamp;pressure;altitude;pressure_sealevel;temperature;humidity
7309;BME280;3695;53.330;9.876;2023-08-07T00:02:01;98718.00;;;9.57;nan
7309;BME280;3695;53.330;9.876;2023-08-07T00:04:28;98741.16;;;9.42;nan
7309;BME280;3695;53.330;9.876;2023-08-07T00:06:54;98708.56;;;9.64;nan
7309;BME280;3695;53.330;9.876;2023-08-07T00:09:22;98848.69;;;9.35;nan
7309;BME280;3695;53.330;9.876;2023-08-07T00:11:49;98753.34;;;9.45;nan
7309;BME280;3695;53.330;9.876;2023-08-07T00:14:15;98696.88;;;9.49;nan
7309;BME280;3695;53.330;9.876;2023-08-07T00:16:42;98784.31;;;9.27;nan
7309;BME280;3695;53.330;9.876;2023-08-07T00:19:08;98807.84;;;9.32;nan
7309;BME280;3695;53.330;9.876;2023-08-07T00:21:35;98738.44;;;9.42;nan
7309;BME280;3695;53.330;9.876;2023-08-07T00:24:03;98816.25;;;9.35;nan
7309;BME280;3695;53.330;9.876;2023-08-07T00:26:31;98714.22;;;9.58;nan
7309;BME280;3695;53.330;9.876;2023-08-07T00:28:58;98748.19;;;9.43;nan
7309;BME280;3695;53.330;9.876;2023-08-07T00:31:24;98829.69;;;9.25;nan
7309;BME280;3695;53.330;9.876;2023-08-07T00:33:51;98814.06;;;9.32;nan
7309;BME280;3695;53.330;9.876;2023-08-07T00:36:19;98704.94;;;9.43;nan
7309;BME280;3695;53.330;9.876;2023-08-07T00:38:46;98681.88;;;9.31;nan
7309;BME280;3695;53.330;9.876;2023-08-07T00:41:12;98665.44;;;9.37;nan
7309;BME280;3695;53.330;9.876;2023-08-07T00:43:40;98676.06;;;9.49;nan
7309;BME280;3695;53.330;9.876;2023-08-07T00:46:06;98702.84;;;9.51;nan
7309;BME280;3695;53.330;9.876;2023-08-07T00:48:33;98889.56;;;9.12;nan
7309;BME280;3695;53.330;9.876;2023-08-07T00:50:59;98778.94;;;9.32;nan
7309;BME280;3695;53.330;9.876;2023-08-07T00:53:26;98783.44;;;9.22;nan
7309;BME280;3695;53.330;9.876;2023-08-07T00:55:52;98814.00;;;9.22;nan
7309;BME280;3695;53.330;9.876;2023-08-07T00:58:19;98783.78;;;9.30;nan
7309;BME280;3695;53.330;9.876;2023-08-07T01:00:47;98793.47;;;9.26;nan
7309;BME280;3695;53.330;9.876;2023-08-07T01:03:13;98742.38;;;9.25;nan
7309;BME280;3695;53.330;9.876;2023-08-07T01:05:40;98738.59;;;9.21;nan
7309;BME280;3695;53.330;9.876;2023-08-07T01:08:06;98861.44;;;9.08;nan
7309;BME280;3695;53.330;9.876;2023-08-07T01:10:42;98947.28;;;9.01;nan
7309;BME280;3695;53.330;9.876;2023-08-07T01:13:18;98992.56;;;8.94;nan
7309;BME280;3695;53.330;9.876;2023-08-07T01:15:49;98956.66;;;9.20;nan
7309;BME280;3695;53.330;9.876;2023-08-07T01:18:18;98893.13;;;9.18;nan
7309;BME280;3695;53.330;9.876;2023-08-07T01:20:45;98827.81;;;9.26;nan
7309;BME280;3695;53.330;9.876;2023-08-07T01:23:13;98699.25;;;9.45;nan
7309;BME280;3695;53.330;9.876;2023-08-07T01:25:39;98904.34;;;9.04;nan
7309;BME280;3695;53.330;9.876;2023-08-07T01:28:12;98883.19;;;9.23;nan
7309;BME280;3695;53.330;9.876;2023-08-07T01:30:47;98937.69;;;9.15;nan
7309;BME280;3695;53.330;9.876;2023-08-07T01:33:17;98950.97;;;9.17;nan
7309;BME280;3695;53.330;9.876;2023-08-07T01:35:51;98837.84;;;9.30;nan
7309;BME280;3695;53.330;9.876;2023-08-07T01:38:21;98788.06;;;9.26;nan
7309;BME280;3695;53.330;9.876;2023-08-07T01:40:50;98874.78;;;9.20;nan
7309;BME280;3695;53.330;9.876;2023-08-07T01:43:17;99075.78;;;9.13;nan
7309;BME280;3695;53.330;9.876;2023-08-07T01:45:45;99120.91;;;9.35;nan
7309;BME280;3695;53.330;9.876;2023-08-07T01:48:11;99183.56;;;9.10;nan
7309;BME280;3695;53.330;9.876;2023-08-07T01:50:38;99326.63;;;9.00;nan
7309;BME280;3695;53.330;9.876;2023-08-07T01:53:05;99271.25;;;9.36;nan
7309;BME280;3695;53.330;9.876;2023-08-07T01:55:32;99210.72;;;9.20;nan
7309;BME280;3695;53.330;9.876;2023-08-07T01:57:59;99332.44;;;9.25;nan
7309;BME280;3695;53.330;9.876;2023-08-07T02:00:25;99497.97;;;9.15;nan
7309;BME280;3695;53.330;9.876;2023-08-07T02:02:52;99586.44;;;9.20;nan
7309;BME280;3695;53.330;9.876;2023-08-07T02:05:18;99597.50;;;9.07;nan
7309;BME280;3695;53.330;9.876;2023-08-07T02:07:45;99555.03;;;9.31;nan
7309;BME280;3695;53.330;9.876;2023-08-07T02:10:11;99498.69;;;9.11;nan
7309;BME280;3695;53.330;9.876;2023-08-07T02:12:40;99378.00;;;9.33;nan
7309;BME280;3695;53.330;9.876;2023-08-07T02:15:07;99161.38;;;9.46;nan
7309;BME280;3695;53.330;9.876;2023-08-07T02:17:35;99171.84;;;9.04;nan
7309;BME280;3695;53.330;9.876;2023-08-07T02:20:04;99202.44;;;9.27;nan
7309;BME280;3695;53.330;9.876;2023-08-07T02:22:31;99138.94;;;9.29;nan
7309;BME280;3695;53.330;9.876;2023-08-07T02:24:57;99204.31;;;9.26;nan
7309;BME280;3695;53.330;9.876;2023-08-07T02:27:24;99331.38;;;9.26;nan
7309;BME280;3695;53.330;9.876;2023-08-07T02:29:53;99362.56;;;9.17;nan
7309;BME280;3695;53.330;9.876;2023-08-07T02:32:19;99378.78;;;9.17;nan
7309;BME280;3695;53.330;9.876;2023-08-07T02:34:45;99304.09;;;9.28;nan
7309;BME280;3695;53.330;9.876;2023-08-07T02:37:12;99274.44;;;9.16;nan
7309;BME280;3695;53.330;9.876;2023-08-07T02:39:38;99278.47;;;9.13;nan
7309;BME280;3695;53.330;9.876;2023-08-07T02:42:05;99266.44;;;9.04;nan
7309;BME280;3695;53.330;9.876;2023-08-07T02:44:32;99015.72;;;9.33;nan
7309;BME280;3695;53.330;9.876;2023-08-07T02:47:00;98865.09;;;9.24;nan
7309;BME280;3695;53.330;9.876;2023-08-07T02:49:26;98771.63;;;9.33;nan
7309;BME280;3695;53.330;9.876;2023-08-07T02:51:52;98719.09;;;9.19;nan
7309;BME280;3695;53.330;9.876;2023-08-07T02:54:19;98545.97;;;9.40;nan
7309;BME280;3695;53.330;9.876;2023-08-07T02:56:45;98505.09;;;9.27;nan
7309;BME280;3695;53.330;9.876;2023-08-07T02:59:14;98473.78;;;9.41;nan
7309;BME280;3695;53.330;9.876;2023-08-07T03:01:40;98518.84;;;9.10;nan
7309;BME280;3695;53.330;9.876;2023-08-07T03:04:08;98529.69;;;9.20;nan
7309;BME280;3695;53.330;9.876;2023-08-07T03:06:34;98501.59;;;9.21;nan
7309;BME280;3695;53.330;9.876;2023-08-07T03:09:01;98431.88;;;9.33;nan
7309;BME280;3695;53.330;9.876;2023-08-07T03:11:27;98407.56;;;9.33;nan
7309;BME280;3695;53.330;9.876;2023-08-07T03:13:53;98436.72;;;9.11;nan
7309;BME280;3695;53.330;9.876;2023-08-07T03:16:20;98425.66;;;9.23;nan
7309;BME280;3695;53.330;9.876;2023-08-07T03:18:46;98455.06;;;9.09;nan
7309;BME280;3695;53.330;9.876;2023-08-07T03:21:14;98516.03;;;8.95;nan
7309;BME280;3695;53.330;9.876;2023-08-07T03:23:40;98576.00;;;8.92;nan
7309;BME280;3695;53.330;9.876;2023-08-07T03:26:08;98478.34;;;9.20;nan
7309;BME280;3695;53.330;9.876;2023-08-07T03:28:35;98526.81;;;8.84;nan
7309;BME280;3695;53.330;9.876;2023-08-07T03:31:02;98379.97;;;9.16;nan
7309;BME280;3695;53.330;9.876;2023-08-07T03:33:29;98274.03;;;9.29;nan
7309;BME280;3695;53.330;9.876;2023-08-07T03:35:56;98320.47;;;8.91;nan
7309;BME280;3695;53.330;9.876;2023-08-07T03:38:24;98307.78;;;8.96;nan
7309;BME280;3695;53.330;9.876;2023-08-07T03:40:50;98235.97;;;9.05;nan
7309;BME280;3695;53.330;9.876;2023-08-07T03:43:17;98208.41;;;9.08;nan
7309;BME280;3695;53.330;9.876;2023-08-07T03:45:44;98238.94;;;8.99;nan
7309;BME280;3695;53.330;9.876;2023-08-07T03:48:11;98177.63;;;9.09;nan
7309;BME280;3695;53.330;9.876;2023-08-07T03:50:37;98214.06;;;8.92;nan
7309;BME280;3695;53.330;9.876;2023-08-07T03:53:04;98177.34;;;9.01;nan
7309;BME280;3695;53.330;9.876;2023-08-07T03:55:33;98215.16;;;8.96;nan
7309;BME280;3695;53.330;9.876;2023-08-07T03:58:00;98228.66;;;8.91;nan
7309;BME280;3695;53.330;9.876;2023-08-07T04:00:26;98166.00;;;9.09;nan
7309;BME280;3695;53.330;9.876;2023-08-07T04:02:53;98356.66;;;8.79;nan
7309;BME280;3695;53.330;9.876;2023-08-07T04:05:21;98354.47;;;8.76;nan
7309;BME280;3695;53.330;9.876;2023-08-07T04:07:49;98377.22;;;8.96;nan
7309;BME280;3695;53.330;9.876;2023-08-07T04:10:15;98417.78;;;9.01;nan
7309;BME280;3695;53.330;9.876;2023-08-07T04:12:43;98440.47;;;9.05;nan
7309;BME280;3695;53.330;9.876;2023-08-07T04:15:10;98518.81;;;9.00;nan
7309;BME280;3695;53.330;9.876;2023-08-07T04:17:36;98563.56;;;8.91;nan
7309;BME280;3695;53.330;9.876;2023-08-07T04:20:03;98577.34;;;8.89;nan
7309;BME280;3695;53.330;9.876;2023-08-07T04:22:30;98584.19;;;9.02;nan
7309;BME280;3695;53.330;9.876;2023-08-07T04:24:57;98671.06;;;8.89;nan
7309;BME280;3695;53.330;9.876;2023-08-07T04:27:23;98624.09;;;8.95;nan
7309;BME280;3695;53.330;9.876;2023-08-07T04:29:51;98706.59;;;8.75;nan
7309;BME280;3695;53.330;9.876;2023-08-07T04:32:17;98565.59;;;9.10;nan
7309;BME280;3695;53.330;9.876;2023-08-07T04:34:44;98580.44;;;9.13;nan
7309;BME280;3695;53.330;9.876;2023-08-07T04:37:10;98593.38;;;9.06;nan
7309;BME280;3695;53.330;9.876;2023-08-07T04:39:36;98538.31;;;9.12;nan
7309;BME280;3695;53.330;9.876;2023-08-07T04:42:18;98632.81;;;9.02;nan
7309;BME280;3695;53.330;9.876;2023-08-07T04:44:44;98680.56;;;8.96;nan
7309;BME280;3695;53.330;9.876;2023-08-07T04:47:12;98638.81;;;9.14;nan
7309;BME280;3695;53.330;9.876;2023-08-07T04:49:38;98744.44;;;9.07;nan
7309;BME280;3695;53.330;9.876;2023-08-07T04:52:05;98872.56;;;8.90;nan
7309;BME280;3695;53.330;9.876;2023-08-07T04:54:32;98927.47;;;8.95;nan
7309;BME280;3695;53.330;9.876;2023-08-07T04:56:58;98971.72;;;9.11;nan
7309;BME280;3695;53.330;9.876;2023-08-07T04:59:24;99096.03;;;8.94;nan
7309;BME280;3695;53.330;9.876;2023-08-07T05:01:51;99084.06;;;9.07;nan
7309;BME280;3695;53.330;9.876;2023-08-07T05:04:19;98995.13;;;8.83;nan
7309;BME280;3695;53.330;9.876;2023-08-07T05:06:46;98939.78;;;9.08;nan
7309;BME280;3695;53.330;9.876;2023-08-07T05:09:14;98847.41;;;9.11;nan
7309;BME280;3695;53.330;9.876;2023-08-07T05:11:40;98854.50;;;9.17;nan
7309;BME280;3695;53.330;9.876;2023-08-07T05:14:06;98694.75;;;9.13;nan
7309;BME280;3695;53.330;9.876;2023-08-07T05:16:33;98615.53;;;9.03;nan
7309;BME280;3695;53.330;9.876;2023-08-07T05:19:00;98601.03;;;9.24;nan
7309;BME280;3695;53.330;9.876;2023-08-07T05:21:28;98568.03;;;9.17;nan
7309;BME280;3695;53.330;9.876;2023-08-07T05:23:54;98491.31;;;9.23;nan
7309;BME280;3695;53.330;9.876;2023-08-07T05:26:21;98424.84;;;9.27;nan
7309;BME280;3695;53.330;9.876;2023-08-07T05:28:47;98540.41;;;9.00;nan
7309;BME280;3695;53.330;9.876;2023-08-07T05:31:13;98485.41;;;9.36;nan
7309;BME280;3695;53.330;9.876;2023-08-07T05:33:40;98509.66;;;9.16;nan
7309;BME280;3695;53.330;9.876;2023-08-07T05:36:06;98491.38;;;9.43;nan
7309;BME280;3695;53.330;9.876;2023-08-07T05:38:34;98568.00;;;9.07;nan
7309;BME280;3695;53.330;9.876;2023-08-07T05:41:01;98652.31;;;9.09;nan
7309;BME280;3695;53.330;9.876;2023-08-07T05:43:27;98803.00;;;9.02;nan
7309;BME280;3695;53.330;9.876;2023-08-07T05:45:53;98794.00;;;9.23;nan
7309;BME280;3695;53.330;9.876;2023-08-07T05:48:20;98717.22;;;9.19;nan
7309;BME280;3695;53.330;9.876;2023-08-07T05:50:46;98659.41;;;9.20;nan
7309;BME280;3695;53.330;9.876;2023-08-07T05:53:13;98536.50;;;9.38;nan
7309;BME280;3695;53.330;9.876;2023-08-07T05:55:40;98518.38;;;9.33;nan
7309;BME280;3695;53.330;9.876;2023-08-07T05:58:07;98469.25;;;9.52;nan
7309;BME280;3695;53.330;9.876;2023-08-07T06:00:33;98552.69;;;9.28;nan
7309;BME280;3695;53.330;9.876;2023-08-07T06:03:00;98674.72;;;9.09;nan
7309;BME280;3695;53.330;9.876;2023-08-07T06:05:26;98529.28;;;9.64;nan
7309;BME280;3695;53.330;9.876;2023-08-07T06:07:53;98440.59;;;9.66;nan
7309;BME280;3695;53.330;9.876;2023-08-07T06:10:19;98423.50;;;9.45;nan
7309;BME280;3695;53.330;9.876;2023-08-07T06:12:47;98466.75;;;9.35;nan
7309;BME280;3695;53.330;9.876;2023-08-07T06:15:13;98393.00;;;9.60;nan
7309;BME280;3695;53.330;9.876;2023-08-07T06:17:40;98371.91;;;9.62;nan
7309;BME280;3695;53.330;9.876;2023-08-07T06:20:08;98357.28;;;9.78;nan
7309;BME280;3695;53.330;9.876;2023-08-07T06:22:36;98339.72;;;9.75;nan
7309;BME280;3695;53.330;9.876;2023-08-07T06:25:03;98266.09;;;9.89;nan
7309;BME280;3695;53.330;9.876;2023-08-07T06:27:30;98239.31;;;9.92;nan
7309;BME280;3695;53.330;9.876;2023-08-07T06:29:58;98190.59;;;10.02;nan
7309;BME280;3695;53.330;9.876;2023-08-07T06:32:25;98194.13;;;9.93;nan
7309;BME280;3695;53.330;9.876;2023-08-07T06:34:51;98114.09;;;10.36;nan
7309;BME280;3695;53.330;9.876;2023-08-07T06:37:18;98143.50;;;10.03;nan
7309;BME280;3695;53.330;9.876;2023-08-07T06:39:44;98183.06;;;9.94;nan
7309;BME280;3695;53.330;9.876;2023-08-07T06:42:11;98143.50;;;10.03;nan
7309;BME280;3695;53.330;9.876;2023-08-07T06:44:38;98167.41;;;9.81;nan
7309;BME280;3695;53.330;9.876;2023-08-07T06:47:06;98148.97;;;9.93;nan
7309;BME280;3695;53.330;9.876;2023-08-07T06:49:33;98145.97;;;10.00;nan
7309;BME280;3695;53.330;9.876;2023-08-07T06:52:01;98133.50;;;10.04;nan
7309;BME280;3695;53.330;9.876;2023-08-07T06:54:29;98073.91;;;10.14;nan
7309;BME280;3695;53.330;9.876;2023-08-07T06:56:55;98076.31;;;10.16;nan
7309;BME280;3695;53.330;9.876;2023-08-07T06:59:22;98082.31;;;10.13;nan
7309;BME280;3695;53.330;9.876;2023-08-07T07:01:49;98136.94;;;10.15;nan
7309;BME280;3695;53.330;9.876;2023-08-07T07:04:16;98075.03;;;10.47;nan
7309;BME280;3695;53.330;9.876;2023-08-07T07:06:43;98153.16;;;10.20;nan
7309;BME280;3695;53.330;9.876;2023-08-07T07:09:09;98174.00;;;10.19;nan
7309;BME280;3695;53.330;9.876;2023-08-07T07:11:36;98182.13;;;10.14;nan
7309;BME280;3695;53.330;9.876;2023-08-07T07:14:03;98322.09;;;9.83;nan
7309;BME280;3695;53.330;9.876;2023-08-07T07:16:29;98214.84;;;10.28;nan
7309;BME280;3695;53.330;9.876;2023-08-07T07:18:56;98194.28;;;10.27;nan
7309;BME280;3695;53.330;9.876;2023-08-07T07:21:24;98213.00;;;10.13;nan
7309;BME280;3695;53.330;9.876;2023-08-07T07:23:51;98311.81;;;9.95;nan
7309;BME280;3695;53.330;9.876;2023-08-07T07:26:18;98190.22;;;10.24;nan
7309;BME280;3695;53.330;9.876;2023-08-07T07:28:44;98166.56;;;10.45;nan
7309;BME280;3695;53.330;9.876;2023-08-07T07:31:11;98228.34;;;10.33;nan
7309;BME280;3695;53.330;9.876;2023-08-07T07:33:37;98181.03;;;10.64;nan
7309;BME280;3695;53.330;9.876;2023-08-07T07:36:04;98190.28;;;10.97;nan
7309;BME280;3695;53.330;9.876;2023-08-07T07:38:33;98297.19;;;10.71;nan
7309;BME280;3695;53.330;9.876;2023-08-07T07:40:59;98401.28;;;10.50;nan
7309;BME280;3695;53.330;9.876;2023-08-07T07:43:26;98398.78;;;10.68;nan
7309;BME280;3695;53.330;9.876;2023-08-07T07:45:52;98474.31;;;10.75;nan
7309;BME280;3695;53.330;9.876;2023-08-07T07:48:18;98599.75;;;10.40;nan
7309;BME280;3695;53.330;9.876;2023-08-07T07:50:45;98575.69;;;10.44;nan
7309;BME280;3695;53.330;9.876;2023-08-07T07:53:11;98646.63;;;10.51;nan
7309;BME280;3695;53.330;9.876;2023-08-07T07:55:39;98690.50;;;10.83;nan
7309;BME280;3695;53.330;9.876;2023-08-07T07:58:05;98812.44;;;10.83;nan
7309;BME280;3695;53.330;9.876;2023-08-07T08:00:32;98904.84;;;10.82;nan
7309;BME280;3695;53.330;9.876;2023-08-07T08:02:58;98850.72;;;11.07;nan
7309;BME280;3695;53.330;9.876;2023-08-07T08:05:25;98887.84;;;11.01;nan
7309;BME280;3695;53.330;9.876;2023-08-07T08:07:52;98953.13;;;10.90;nan
7309;BME280;3695;53.330;9.876;2023-08-07T08:10:18;98975.41;;;11.07;nan
7309;BME280;3695;53.330;9.876;2023-08-07T08:12:46;98953.56;;;10.71;nan
7309;BME280;3695;53.330;9.876;2023-08-07T08:15:12;98861.47;;;10.82;nan
7309;BME280;3695;53.330;9.876;2023-08-07T08:17:39;98963.50;;;10.56;nan
7309;BME280;3695;53.330;9.876;2023-08-07T08:20:06;98873.94;;;10.78;nan
7309;BME280;3695;53.330;9.876;2023-08-07T08:22:33;98935.69;;;10.76;nan
7309;BME280;3695;53.330;9.876;2023-08-07T08:25:00;99016.31;;;10.53;nan
7309;BME280;3695;53.330;9.876;2023-08-07T08:27:26;98925.94;;;10.69;nan
7309;BME280;3695;53.330;9.876;2023-08-07T08:29:54;98982.47;;;10.56;nan
7309;BME280;3695;53.330;9.876;2023-08-07T08:32:20;99111.19;;;10.04;nan
7309;BME280;3695;53.330;9.876;2023-08-07T08:34:47;99067.72;;;9.89;nan
7309;BME280;3695;53.330;9.876;2023-08-07T08:37:14;98952.09;;;10.12;nan
7309;BME280;3695;53.330;9.876;2023-08-07T08:39:41;98955.81;;;10.00;nan
7309;BME280;3695;53.330;9.876;2023-08-07T08:42:10;98958.47;;;9.95;nan
7309;BME280;3695;53.330;9.876;2023-08-07T08:44:39;98896.19;;;10.27;nan
7309;BME280;3695;53.330;9.876;2023-08-07T08:47:08;98849.38;;;10.37;nan
7309;BME280;3695;53.330;9.876;2023-08-07T08:49:37;98885.72;;;10.41;nan
7309;BME280;3695;53.330;9.876;2023-08-07T08:52:09;98816.47;;;10.65;nan
7309;BME280;3695;53.330;9.876;2023-08-07T08:54:36;98864.19;;;10.87;nan
7309;BME280;3695;53.330;9.876;2023-08-07T08:57:03;99007.53;;;10.83;nan
7309;BME280;3695;53.330;9.876;2023-08-07T08:59:30;98992.16;;;10.94;nan
7309;BME280;3695;53.330;9.876;2023-08-07T09:01:58;99127.78;;;10.72;nan
7309;BME280;3695;53.330;9.876;2023-08-07T09:04:26;99042.41;;;11.17;nan
7309;BME280;3695;53.330;9.876;2023-08-07T09:06:52;99266.69;;;10.62;nan
7309;BME280;3695;53.330;9.876;2023-08-07T09:09:20;99209.34;;;10.76;nan
7309;BME280;3695;53.330;9.876;2023-08-07T09:11:47;99301.03;;;10.57;nan
7309;BME280;3695;53.330;9.876;2023-08-07T09:14:16;99213.16;;;10.75;nan
7309;BME280;3695;53.330;9.876;2023-08-07T09:16:43;99118.59;;;11.15;nan
7309;BME280;3695;53.330;9.876;2023-08-07T09:19:10;99271.38;;;10.72;nan
7309;BME280;3695;53.330;9.876;2023-08-07T09:21:38;99282.00;;;10.79;nan
7309;BME280;3695;53.330;9.876;2023-08-07T09:24:04;99371.72;;;10.55;nan
7309;BME280;3695;53.330;9.876;2023-08-07T09:26:32;99313.41;;;10.75;nan
7309;BME280;3695;53.330;9.876;2023-08-07T09:28:59;99282.56;;;10.81;nan
7309;BME280;3695;53.330;9.876;2023-08-07T09:31:26;99194.31;;;11.32;nan
7309;BME280;3695;53.330;9.876;2023-08-07T09:33:53;99480.06;;;10.55;nan
7309;BME280;3695;53.330;9.876;2023-08-07T09:36:21;99418.50;;;10.72;nan
7309;BME280;3695;53.330;9.876;2023-08-07T09:38:51;99439.88;;;10.69;nan
7309;BME280;3695;53.330;9.876;2023-08-07T09:41:17;99393.81;;;10.91;nan
7309;BME280;3695;53.330;9.876;2023-08-07T09:43:44;99450.00;;;10.79;nan
7309;BME280;3695;53.330;9.876;2023-08-07T09:46:11;99329.47;;;11.08;nan
7309;BME280;3695;53.330;9.876;2023-08-07T09:48:40;99384.66;;;10.97;nan
7309;BME280;3695;53.330;9.876;2023-08-07T09:51:06;99433.91;;;10.89;nan
7309;BME280;3695;53.330;9.876;2023-08-07T09:53:33;99508.94;;;10.66;nan
7309;BME280;3695;53.330;9.876;2023-08-07T09:56:01;99268.63;;;11.31;nan
7309;BME280;3695;53.330;9.876;2023-08-07T09:58:28;99503.28;;;11.12;nan
7309;BME280;3695;53.330;9.876;2023-08-07T10:00:55;99517.03;;;11.05;nan
7309;BME280;3695;53.330;9.876;2023-08-07T10:03:24;99444.00;;;11.20;nan
7309;BME280;3695;53.330;9.876;2023-08-07T10:05:51;99371.50;;;11.38;nan
7309;BME280;3695;53.330;9.876;2023-08-07T10:08:18;99565.19;;;10.98;nan
7309;BME280;3695;53.330;9.876;2023-08-07T10:10:46;99512.75;;;11.09;nan
7309;BME280;3695;53.330;9.876;2023-08-07T10:13:14;99640.53;;;10.79;nan
7309;BME280;3695;53.330;9.876;2023-08-07T10:15:41;99748.16;;;10.50;nan
7309;BME280;3695;53.330;9.876;2023-08-07T10:18:07;99529.28;;;11.08;nan
7309;BME280;3695;53.330;9.876;2023-08-07T10:20:34;99446.28;;;11.33;nan
7309;BME280;3695;53.330;9.876;2023-08-07T10:23:06;99570.44;;;11.26;nan
7309;BME280;3695;53.330;9.876;2023-08-07T10:25:34;99341.88;;;11.68;nan
7309;BME280;3695;53.330;9.876;2023-08-07T10:28:02;99408.53;;;11.54;nan
7309;BME280;3695;53.330;9.876;2023-08-07T10:30:32;99493.63;;;11.43;nan
7309;BME280;3695;53.330;9.876;2023-08-07T10:33:00;99409.13;;;11.61;nan
7309;BME280;3695;53.330;9.876;2023-08-07T10:35:31;99268.81;;;11.98;nan
7309;BME280;3695;53.330;9.876;2023-08-07T10:38:05;99358.31;;;11.83;nan
7309;BME280;3695;53.330;9.876;2023-08-07T10:40:33;99667.63;;;11.13;nan
7309;BME280;3695;53.330;9.876;2023-08-07T10:43:12;99511.03;;;11.47;nan
7309;BME280;3695;53.330;9.876;2023-08-07T10:45:40;99580.28;;;11.32;nan
7309;BME280;3695;53.330;9.876;2023-08-07T10:48:06;99755.03;;;11.03;nan
7309;BME280;3695;53.330;9.876;2023-08-07T10:50:35;99721.53;;;11.09;nan
7309;BME280;3695;53.330;9.876;2023-08-07T10:53:02;99504.06;;;11.56;nan
7309;BME280;3695;53.330;9.876;2023-08-07T10:55:43;99639.63;;;11.29;nan
7309;BME280;3695;53.330;9.876;2023-08-07T10:58:21;99490.03;;;11.64;nan
7309;BME280;3695;53.330;9.876;2023-08-07T11:00:51;99483.25;;;11.66;nan
7309;BME280;3695;53.330;9.876;2023-08-07T11:03:26;99651.97;;;11.37;nan
7309;BME280;3695;53.330;9.876;2023-08-07T11:05:53;99407.19;;;11.83;nan
7309;BME280;3695;53.330;9.876;2023-08-07T11:08:21;99704.97;;;11.27;nan
7309;BME280;3695;53.330;9.876;2023-08-07T11:10:48;99388.81;;;11.95;nan
7309;BME280;3695;53.330;9.876;2023-08-07T11:13:15;99516.94;;;11.71;nan
7309;BME280;3695;53.330;9.876;2023-08-07T11:15:42;99684.41;;;11.48;nan
7309;BME280;3695;53.330;9.876;2023-08-07T11:18:11;99542.25;;;11.76;nan
7309;BME280;3695;53.330;9.876;2023-08-07T11:20:37;99609.94;;;11.61;nan
7309;BME280;3695;53.330;9.876;2023-08-07T11:23:04;99764.97;;;11.31;nan
7309;BME280;3695;53.330;9.876;2023-08-07T11:25:31;99838.53;;;11.18;nan
7309;BME280;3695;53.330;9.876;2023-08-07T11:27:58;100219.19;;;9.98;nan
7309;BME280;3695;53.330;9.876;2023-08-07T11:30:24;100108.09;;;9.93;nan
7309;BME280;3695;53.330;9.876;2023-08-07T11:32:51;99982.50;;;10.18;nan
7309;BME280;3695;53.330;9.876;2023-08-07T11:35:19;99913.66;;;10.25;nan
7309;BME280;3695;53.330;9.876;2023-08-07T11:37:46;99664.59;;;10.92;nan
7309;BME280;3695;53.330;9.876;2023-08-07T11:40:13;99616.59;;;11.31;nan
7309;BME280;3695;53.330;9.876;2023-08-07T11:42:40;99715.09;;;11.15;nan
7309;BME280;3695;53.330;9.876;2023-08-07T11:45:07;100099.22;;;10.28;nan
7309;BME280;3695;53.330;9.876;2023-08-07T11:47:34;100356.31;;;9.18;nan
7309;BME280;3695;53.330;9.876;2023-08-07T11:50:01;100223.69;;;9.31;nan
7309;BME280;3695;53.330;9.876;2023-08-07T11:52:30;100152.09;;;9.34;nan
7309;BME280;3695;53.330;9.876;2023-08-07T11:54:56;100111.41;;;9.47;nan
7309;BME280;3695;53.330;9.876;2023-08-07T11:57:24;99961.28;;;9.79;nan
7309;BME280;3695;53.330;9.876;2023-08-07T11:59:51;99773.44;;;10.27;nan
7309;BME280;3695;53.330;9.876;2023-08-07T12:02:22;99727.75;;;10.59;nan
7309;BME280;3695;53.330;9.876;2023-08-07T12:04:48;99808.59;;;10.39;nan
7309;BME280;3695;53.330;9.876;2023-08-07T12:07:17;99941.66;;;10.19;nan
7309;BME280;3695;53.330;9.876;2023-08-07T12:09:49;99755.81;;;10.53;nan
7309;BME280;3695;53.330;9.876;2023-08-07T12:12:19;99632.16;;;10.81;nan
7309;BME280;3695;53.330;9.876;2023-08-07T12:14:45;99707.47;;;10.79;nan
7309;BME280;3695;53.330;9.876;2023-08-07T12:17:11;99792.28;;;10.62;nan
7309;BME280;3695;53.330;9.876;2023-08-07T12:19:38;99696.69;;;10.84;nan
7309;BME280;3695;53.330;9.876;2023-08-07T12:22:10;99746.13;;;10.74;nan
7309;BME280;3695;53.330;9.876;2023-08-07T12:24:37;99754.28;;;10.74;nan
7309;BME280;3695;53.330;9.876;2023-08-07T12:27:05;99758.13;;;10.78;nan
7309;BME280;3695;53.330;9.876;2023-08-07T12:29:32;99746.47;;;10.78;nan
7309;BME280;3695;53.330;9.876;2023-08-07T12:31:58;99601.59;;;11.02;nan
7309;BME280;3695;53.330;9.876;2023-08-07T12:34:26;99756.16;;;10.73;nan
7309;BME280;3695;53.330;9.876;2023-08-07T12:36:52;99631.09;;;10.98;nan
7309;BME280;3695;53.330;9.876;2023-08-07T12:39:19;99519.34;;;11.18;nan
7309;BME280;3695;53.330;9.876;2023-08-07T12:41:46;99572.06;;;11.06;nan
7309;BME280;3695;53.330;9.876;2023-08-07T12:44:15;99369.72;;;11.53;nan
7309;BME280;3695;53.330;9.876;2023-08-07T12:46:41;99314.25;;;11.76;nan
7309;BME280;3695;53.330;9.876;2023-08-07T12:49:08;99355.47;;;11.68;nan
7309;BME280;3695;53.330;9.876;2023-08-07T12:51:35;99334.03;;;11.72;nan
7309;BME280;3695;53.330;9.876;2023-08-07T12:54:01;99269.31;;;11.85;nan
7309;BME280;3695;53.330;9.876;2023-08-07T12:56:28;99343.53;;;11.69;nan
7309;BME280;3695;53.330;9.876;2023-08-07T12:58:54;99218.31;;;11.97;nan
7309;BME280;3695;53.330;9.876;2023-08-07T13:01:22;99149.94;;;12.06;nan
7309;BME280;3695;53.330;9.876;2023-08-07T13:03:48;99378.44;;;11.55;nan
7309;BME280;3695;53.330;9.876;2023-08-07T13:06:15;99444.78;;;11.43;nan
7309;BME280;3695;53.330;9.876;2023-08-07T13:08:42;99336.97;;;11.65;nan
7309;BME280;3695;53.330;9.876;2023-08-07T13:11:09;99417.44;;;11.49;nan
7309;BME280;3695;53.330;9.876;2023-08-07T13:13:36;99463.22;;;11.41;nan
7309;BME280;3695;53.330;9.876;2023-08-07T13:16:03;99366.28;;;11.63;nan
7309;BME280;3695;53.330;9.876;2023-08-07T13:18:31;99272.28;;;11.84;nan
7309;BME280;3695;53.330;9.876;2023-08-07T13:20:58;99226.47;;;11.97;nan
7309;BME280;3695;53.330;9.876;2023-08-07T13:23:24;99777.44;;;10.82;nan
7309;BME280;3695;53.330;9.876;2023-08-07T13:25:51;99792.38;;;10.84;nan
7309;BME280;3695;53.330;9.876;2023-08-07T13:28:17;100062.13;;;10.28;nan
7309;BME280;3695;53.330;9.876;2023-08-07T13:30:44;100440.69;;;8.89;nan
7309;BME280;3695;53.330;9.876;2023-08-07T13:33:10;100406.31;;;8.64;nan
7309;BME280;3695;53.330;9.876;2023-08-07T13:35:38;100228.78;;;8.96;nan
7309;BME280;3695;53.330;9.876;2023-08-07T13:38:04;100171.09;;;9.09;nan
7309;BME280;3695;53.330;9.876;2023-08-07T13:40:33;100173.13;;;9.13;nan
7309;BME280;3695;53.330;9.876;2023-08-07T13:42:59;100015.03;;;9.64;nan
7309;BME280;3695;53.330;9.876;2023-08-07T13:45:28;100038.91;;;9.67;nan
7309;BME280;3695;53.330;9.876;2023-08-07T13:47:54;99925.44;;;10.31;nan
7309;BME280;3695;53.330;9.876;2023-08-07T13:50:21;99955.47;;;10.29;nan